Time;durP1;ratioP1;P1;durP2;ratioP2;P2;SDS_P1;SDS_P2;PMS_P1;PMS_P2;Temp;Humidity;BMP_temperature;BMP_pressure;BME280_temperature;BME280_humidity;BME280_pressure;Samples;Min_cycle;Max_cycle;Signal;HPM_P1;HPM_P2
2022/03/04 00:00:45;;;;;;;0.00;0.00;;;8.00;61.70;;;;;;4107305;28;20054;-74
2022/03/04 00:03:11;;;;;;;0.00;0.00;;;8.00;61.80;;;;;;4119745;28;20050;-72
2022/03/04 00:05:36;;;;;;;0.00;0.00;;;8.00;61.80;;;;;;4135614;28;20123;-76
2022/03/04 00:07:58;;;;;;;0.00;0.00;;;8.00;61.80;;;;;;4131899;28;20408;-74
2022/03/04 00:10:20;;;;;;;0.00;0.00;;;7.90;61.90;;;;;;4117742;28;20058;-75
2022/03/04 00:12:48;;;;;;;0.00;0.00;;;8.00;61.80;;;;;;4117890;28;20047;-73
2022/03/04 00:15:10;;;;;;;0.00;0.00;;;8.00;61.70;;;;;;4131433;28;20053;-74
2022/03/04 00:17:32;;;;;;;0.00;0.00;;;8.10;61.50;;;;;;4118016;28;20355;-75
2022/03/04 00:19:54;;;;;;;0.00;0.00;;;8.10;61.50;;;;;;4130117;28;20053;-76
2022/03/04 00:22:18;;;;;;;0.00;0.00;;;8.10;61.50;;;;;;4130785;28;20058;-74
2022/03/04 00:24:41;;;;;;;0.00;0.00;;;8.00;61.50;;;;;;4131307;28;20057;-76
2022/03/04 00:27:03;;;;;;;0.00;0.00;;;8.10;61.60;;;;;;4131274;28;20369;-75
2022/03/04 00:29:27;;;;;;;0.00;0.00;;;8.00;61.60;;;;;;4131489;28;20353;-73
2022/03/04 00:31:49;;;;;;;0.00;0.00;;;8.00;61.80;;;;;;4117794;28;20102;-74
2022/03/04 00:34:14;;;;;;;0.00;0.00;;;8.00;61.70;;;;;;4102736;28;20385;-72
2022/03/04 00:36:40;;;;;;;0.00;0.00;;;7.90;61.50;;;;;;4119775;28;20484;-75
2022/03/04 00:39:05;;;;;;;0.00;0.00;;;7.90;61.20;;;;;;4134245;28;20066;-76
2022/03/04 00:41:30;;;;;;;0.00;0.00;;;7.80;60.60;;;;;;4120788;28;20266;-76
2022/03/04 00:43:55;;;;;;;0.00;0.00;;;7.80;59.80;;;;;;4120750;28;20058;-73
2022/03/04 00:46:17;;;;;;;0.00;0.00;;;7.80;59.20;;;;;;4133796;28;20129;-74
2022/03/04 00:48:43;;;;;;;0.00;0.00;;;7.70;58.80;;;;;;4120735;28;20034;-75
2022/03/04 00:51:05;;;;;;;0.00;0.00;;;7.70;58.80;;;;;;4120820;28;20484;-73
2022/03/04 00:53:30;;;;;;;0.00;0.00;;;7.70;58.90;;;;;;4120494;28;20050;-74
2022/03/04 00:55:54;;;;;;;0.00;0.00;;;7.70;58.90;;;;;;4120833;28;20051;-76
2022/03/04 00:58:16;;;;;;;0.00;0.00;;;7.70;58.90;;;;;;4117423;28;20047;-74
2022/03/04 01:00:40;;;;;;;0.00;0.00;;;7.70;58.90;;;;;;4109064;28;20109;-73
2022/03/04 01:03:04;;;;;;;0.00;0.00;;;7.70;59.00;;;;;;4120128;28;20074;-74
2022/03/04 01:05:29;;;;;;;0.00;0.00;;;7.80;59.20;;;;;;4133866;28;20125;-73
2022/03/04 01:07:55;;;;;;;0.00;0.00;;;7.80;59.30;;;;;;4120253;28;20516;-75
2022/03/04 01:10:20;;;;;;;0.00;0.00;;;7.70;59.30;;;;;;4120004;28;20065;-72
2022/03/04 01:12:43;;;;;;;0.00;0.00;;;7.70;59.30;;;;;;4120736;28;20478;-74
2022/03/04 01:15:09;;;;;;;0.00;0.00;;;7.70;59.00;;;;;;4133931;28;20173;-75
2022/03/04 01:17:34;;;;;;;0.00;0.00;;;7.70;59.00;;;;;;4134490;28;20141;-76
2022/03/04 01:19:57;;;;;;;0.00;0.00;;;7.70;58.90;;;;;;4146015;28;20054;-73
2022/03/04 01:22:23;;;;;;;0.00;0.00;;;7.60;58.50;;;;;;4133476;28;20050;-74
2022/03/04 01:24:45;;;;;;;0.00;0.00;;;7.60;58.30;;;;;;4133659;28;20058;-79
2022/03/04 01:27:07;;;;;;;0.00;0.00;;;7.60;57.70;;;;;;4133706;28;20054;-76
2022/03/04 01:29:37;;;;;;;0.00;0.00;;;7.50;57.30;;;;;;4142495;28;20362;-76
2022/03/04 01:32:15;;;;;;;0.00;0.00;;;7.50;56.70;;;;;;4133754;28;20086;-73
2022/03/04 01:34:40;;;;;;;0.00;0.00;;;7.50;56.10;;;;;;4146029;28;20104;-73
2022/03/04 01:37:11;;;;;;;0.00;0.00;;;7.50;56.00;;;;;;4134092;28;20456;-74
2022/03/04 01:39:36;;;;;;;0.00;0.00;;;7.50;55.60;;;;;;4133182;28;20108;-72
2022/03/04 01:42:00;;;;;;;0.00;0.00;;;7.50;55.30;;;;;;4145868;28;20069;-77
2022/03/04 01:44:22;;;;;;;0.00;0.00;;;7.50;54.90;;;;;;4119390;28;20081;-73
2022/03/04 01:46:55;;;;;;;0.00;0.00;;;7.50;54.80;;;;;;4133416;28;20050;-76
2022/03/04 01:49:20;;;;;;;0.00;0.00;;;7.40;54.80;;;;;;4132968;28;20062;-76
2022/03/04 01:51:47;;;;;;;0.00;0.00;;;7.30;54.90;;;;;;4133969;28;20475;-77
2022/03/04 01:54:12;;;;;;;0.00;0.00;;;7.20;54.90;;;;;;4118468;28;20051;-76
2022/03/04 01:56:42;;;;;;;0.00;0.00;;;7.10;54.80;;;;;;4133883;28;20057;-79
2022/03/04 01:59:07;;;;;;;0.00;0.00;;;7.10;54.60;;;;;;4133085;28;20050;-75
2022/03/04 02:01:35;;;;;;;0.00;0.00;;;7.10;54.70;;;;;;4132945;28;20050;-75
2022/03/04 02:04:00;;;;;;;0.00;0.00;;;7.00;54.90;;;;;;4120216;28;20054;-76
2022/03/04 02:06:24;;;;;;;0.00;0.00;;;7.00;55.00;;;;;;4119706;28;20138;-77
2022/03/04 02:08:57;;;;;;;0.00;0.00;;;7.00;55.10;;;;;;4132842;28;20054;-74
2022/03/04 02:11:22;;;;;;;0.00;0.00;;;7.00;55.20;;;;;;4133586;28;20073;-77
2022/03/04 02:13:48;;;;;;;0.00;0.00;;;7.10;55.30;;;;;;4133520;28;20105;-75
2022/03/04 02:16:26;;;;;;;0.00;0.00;;;7.00;55.20;;;;;;4118577;28;20335;-76
2022/03/04 02:19:13;;;;;;;0.00;0.00;;;7.00;55.10;;;;;;4132612;28;20481;-75
2022/03/04 02:21:52;;;;;;;0.00;0.00;;;7.00;54.70;;;;;;4116016;28;20069;-76
2022/03/04 02:24:14;;;;;;;0.00;0.00;;;7.00;54.50;;;;;;4132300;28;20066;-75
2022/03/04 02:26:38;;;;;;;0.00;0.00;;;6.90;54.30;;;;;;4119107;28;20090;-75
2022/03/04 02:29:00;;;;;;;0.00;0.00;;;7.00;54.00;;;;;;4119289;28;20050;-77
2022/03/04 02:31:24;;;;;;;0.00;0.00;;;7.00;53.60;;;;;;4132706;28;20061;-74
2022/03/04 02:33:47;;;;;;;0.00;0.00;;;6.90;53.40;;;;;;4132736;28;20097;-74
2022/03/04 02:36:12;;;;;;;0.00;0.00;;;6.90;53.70;;;;;;4118449;28;20113;-76
2022/03/04 02:38:34;;;;;;;0.00;0.00;;;6.90;53.70;;;;;;4119147;28;20058;-76
2022/03/04 02:40:57;;;;;;;0.00;0.00;;;6.80;53.80;;;;;;4132550;28;20049;-76
2022/03/04 02:43:19;;;;;;;0.00;0.00;;;6.80;54.00;;;;;;4126342;28;20121;-76
2022/03/04 02:45:41;;;;;;;0.00;0.00;;;6.70;54.20;;;;;;4119038;28;20418;-74
2022/03/04 02:48:04;;;;;;;0.00;0.00;;;6.70;54.40;;;;;;4118732;28;20142;-75
2022/03/04 02:50:31;;;;;;;0.00;0.00;;;6.60;54.50;;;;;;4118942;28;20052;-74
2022/03/04 02:52:56;;;;;;;0.00;0.00;;;6.60;55.10;;;;;;4118901;28;20042;-77
2022/03/04 02:55:18;;;;;;;0.00;0.00;;;6.60;54.60;;;;;;4118912;28;20541;-75
2022/03/04 02:57:48;;;;;;;0.00;0.00;;;6.50;54.60;;;;;;4132072;28;20046;-75
2022/03/04 03:00:11;;;;;;;0.00;0.00;;;6.40;54.80;;;;;;4115269;28;20064;-73
2022/03/04 03:02:33;;;;;;;0.00;0.00;;;6.40;54.70;;;;;;4101845;28;20047;-75
2022/03/04 03:04:56;;;;;;;0.00;0.00;;;6.40;54.50;;;;;;4096193;28;20047;-75
2022/03/04 03:07:18;;;;;;;0.00;0.00;;;6.40;54.20;;;;;;4118628;28;20062;-72
2022/03/04 03:09:40;;;;;;;0.00;0.00;;;6.30;54.10;;;;;;4105429;28;20491;-73
2022/03/04 03:12:02;;;;;;;0.00;0.00;;;6.40;53.90;;;;;;4116077;28;20046;-73
2022/03/04 03:14:26;;;;;;;0.00;0.00;;;6.40;53.70;;;;;;4131395;28;20377;-74
2022/03/04 03:16:50;;;;;;;0.00;0.00;;;6.40;53.70;;;;;;4118771;28;20038;-74
2022/03/04 03:19:13;;;;;;;0.00;0.00;;;6.30;53.60;;;;;;4118397;28;20043;-72
2022/03/04 03:21:35;;;;;;;0.00;0.00;;;6.20;53.70;;;;;;4127803;28;20104;-74
2022/03/04 03:23:57;;;;;;;0.00;0.00;;;6.20;53.80;;;;;;4131891;28;20073;-75
2022/03/04 03:26:20;;;;;;;0.00;0.00;;;6.20;53.70;;;;;;4131284;28;20086;-75
2022/03/04 03:28:42;;;;;;;0.00;0.00;;;6.20;53.70;;;;;;4131603;28;20133;-73
2022/03/04 03:31:06;;;;;;;0.00;0.00;;;6.20;53.80;;;;;;4131769;28;20045;-75
2022/03/04 03:33:31;;;;;;;0.00;0.00;;;6.20;53.90;;;;;;4118354;28;20046;-74
2022/03/04 03:35:54;;;;;;;0.00;0.00;;;6.20;54.00;;;;;;4118300;28;20058;-74
2022/03/04 03:38:16;;;;;;;0.00;0.00;;;6.10;54.00;;;;;;4131152;28;20038;-76
2022/03/04 03:40:44;;;;;;;0.00;0.00;;;6.20;54.00;;;;;;4118139;28;20039;-77
2022/03/04 03:43:28;;;;;;;0.00;0.00;;;6.10;53.80;;;;;;4126620;28;20074;-74
2022/03/04 03:45:52;;;;;;;0.00;0.00;;;6.00;53.80;;;;;;4118572;28;20054;-73
2022/03/04 03:48:14;;;;;;;0.00;0.00;;;6.00;53.80;;;;;;4117550;28;20049;-76
2022/03/04 03:50:39;;;;;;;0.00;0.00;;;6.00;53.70;;;;;;4118221;28;20108;-76
2022/03/04 03:53:03;;;;;;;0.00;0.00;;;6.00;53.50;;;;;;4118313;28;20065;-74
2022/03/04 03:55:28;;;;;;;0.00;0.00;;;6.10;53.40;;;;;;4131254;28;20432;-75
2022/03/04 03:57:50;;;;;;;0.00;0.00;;;6.00;53.30;;;;;;4131694;28;20054;-75
2022/03/04 04:00:12;;;;;;;0.00;0.00;;;5.70;53.30;;;;;;4117750;28;20054;-76
2022/03/04 04:02:36;;;;;;;0.00;0.00;;;5.60;53.50;;;;;;4131828;28;20049;-75
2022/03/04 04:05:03;;;;;;;0.00;0.00;;;5.60;53.50;;;;;;4131532;28;20054;-74
2022/03/04 04:07:25;;;;;;;0.00;0.00;;;5.60;53.40;;;;;;4131108;28;20046;-76
2022/03/04 04:09:47;;;;;;;0.00;0.00;;;5.70;53.50;;;;;;4131438;28;20042;-75
2022/03/04 04:12:09;;;;;;;0.00;0.00;;;5.60;53.60;;;;;;4120413;28;20043;-76
2022/03/04 04:14:35;;;;;;;0.00;0.00;;;5.60;53.80;;;;;;4135073;28;20444;-76
2022/03/04 04:16:57;;;;;;;0.00;0.00;;;5.60;53.80;;;;;;4134867;28;20066;-73
2022/03/04 04:19:22;;;;;;;0.00;0.00;;;5.60;54.00;;;;;;4121326;28;20050;-77
2022/03/04 04:21:44;;;;;;;0.00;0.00;;;5.60;54.00;;;;;;4121156;28;20046;-74
2022/03/04 04:24:06;;;;;;;0.00;0.00;;;5.60;54.10;;;;;;4134152;28;20436;-75
2022/03/04 04:26:31;;;;;;;0.00;0.00;;;5.60;53.90;;;;;;4107754;28;20058;-77
2022/03/04 04:28:53;;;;;;;0.00;0.00;;;5.60;53.90;;;;;;4120885;28;20469;-74
2022/03/04 04:31:35;;;;;;;0.00;0.00;;;5.50;54.00;;;;;;4121003;28;20057;-75
2022/03/04 04:34:19;;;;;;;0.00;0.00;;;5.50;53.90;;;;;;4134261;28;20350;-75
2022/03/04 04:36:42;;;;;;;0.00;0.00;;;5.50;54.00;;;;;;4133946;28;20089;-75
2022/03/04 04:39:08;;;;;;;0.00;0.00;;;5.50;54.20;;;;;;4107918;28;20051;-75
2022/03/04 04:41:34;;;;;;;0.00;0.00;;;5.40;54.20;;;;;;4134241;28;20400;-76
2022/03/04 04:44:03;;;;;;;0.00;0.00;;;5.40;54.30;;;;;;4120894;28;20047;-75
2022/03/04 04:46:26;;;;;;;0.00;0.00;;;5.40;54.30;;;;;;4133580;28;20042;-74
2022/03/04 04:48:50;;;;;;;0.00;0.00;;;5.30;54.20;;;;;;4120495;28;20165;-75
2022/03/04 04:51:14;;;;;;;0.00;0.00;;;5.30;54.70;;;;;;4120587;28;20042;-72
2022/03/04 04:53:38;;;;;;;0.00;0.00;;;5.20;54.10;;;;;;4120439;28;20106;-76
2022/03/04 04:56:06;;;;;;;0.00;0.00;;;5.20;54.10;;;;;;4133925;28;20436;-77
2022/03/04 04:58:33;;;;;;;0.00;0.00;;;5.20;54.10;;;;;;4147317;28;20132;-75
2022/03/04 05:01:01;;;;;;;0.00;0.00;;;5.30;54.10;;;;;;4134166;28;20101;-73
2022/03/04 05:03:30;;;;;;;0.00;0.00;;;5.30;54.10;;;;;;4120514;28;20818;-75
2022/03/04 05:06:02;;;;;;;0.00;0.00;;;5.20;54.10;;;;;;4134072;28;20061;-75
2022/03/04 05:08:26;;;;;;;0.00;0.00;;;5.10;54.10;;;;;;4120032;28;20684;-75
2022/03/04 05:10:50;;;;;;;0.00;0.00;;;5.00;54.20;;;;;;4120848;28;20074;-72
2022/03/04 05:13:15;;;;;;;0.00;0.00;;;4.90;54.40;;;;;;4107362;28;20104;-73
2022/03/04 05:15:43;;;;;;;0.00;0.00;;;4.90;54.50;;;;;;4133662;28;20088;-75
2022/03/04 05:18:11;;;;;;;0.00;0.00;;;4.90;54.60;;;;;;4117599;28;20057;-74
2022/03/04 05:20:35;;;;;;;0.00;0.00;;;4.90;54.70;;;;;;4120363;28;20038;-73
2022/03/04 05:22:57;;;;;;;0.00;0.00;;;5.00;54.80;;;;;;4133572;28;20050;-73
2022/03/04 05:25:19;;;;;;;0.00;0.00;;;5.00;54.60;;;;;;4133865;28;20056;-73
2022/03/04 05:27:41;;;;;;;0.00;0.00;;;4.90;54.60;;;;;;4120300;28;20136;-77
2022/03/04 05:30:04;;;;;;;0.00;0.00;;;4.70;54.70;;;;;;4133668;28;20038;-75
2022/03/04 05:32:26;;;;;;;0.00;0.00;;;4.60;54.60;;;;;;4133081;28;20046;-74
2022/03/04 05:34:49;;;;;;;0.00;0.00;;;4.60;54.40;;;;;;4133626;28;20125;-73
2022/03/04 05:37:15;;;;;;;0.00;0.00;;;4.70;54.30;;;;;;4120072;28;20061;-73
2022/03/04 05:39:37;;;;;;;0.00;0.00;;;4.80;54.10;;;;;;4120042;28;20051;-74
2022/03/04 05:42:02;;;;;;;0.00;0.00;;;4.70;54.20;;;;;;4120208;28;20046;-73
2022/03/04 05:44:26;;;;;;;0.00;0.00;;;4.80;54.20;;;;;;4120006;28;20070;-75
2022/03/04 05:46:53;;;;;;;0.00;0.00;;;4.60;54.70;;;;;;4133436;28;20108;-75
2022/03/04 05:49:17;;;;;;;0.00;0.00;;;4.60;54.40;;;;;;4126840;28;20132;-76
2022/03/04 05:51:39;;;;;;;0.00;0.00;;;4.50;54.30;;;;;;4107118;28;20083;-75
2022/03/04 05:54:01;;;;;;;0.00;0.00;;;4.50;54.40;;;;;;4119405;28;20045;-74
2022/03/04 05:56:26;;;;;;;0.00;0.00;;;4.40;54.10;;;;;;4119346;28;20066;-73
2022/03/04 05:58:50;;;;;;;0.00;0.00;;;4.40;54.20;;;;;;4133327;28;20050;-74
2022/03/04 06:01:12;;;;;;;0.00;0.00;;;4.30;54.30;;;;;;4133350;28;20409;-76
2022/03/04 06:03:36;;;;;;;0.00;0.00;;;4.30;54.40;;;;;;4106582;28;20437;-75
2022/03/04 06:06:01;;;;;;;0.00;0.00;;;4.30;54.30;;;;;;4132554;28;20479;-76
2022/03/04 06:08:25;;;;;;;0.00;0.00;;;4.50;54.10;;;;;;4106318;28;20106;-73
2022/03/04 06:10:53;;;;;;;0.00;0.00;;;4.50;54.00;;;;;;4133626;28;20058;-71
2022/03/04 06:13:15;;;;;;;0.00;0.00;;;4.60;53.90;;;;;;4120047;28;20404;-72
2022/03/04 06:15:37;;;;;;;0.00;0.00;;;4.60;53.80;;;;;;4133031;28;20051;-74
2022/03/04 06:18:00;;;;;;;0.00;0.00;;;4.60;53.80;;;;;;4133351;28;20049;-74
2022/03/04 06:20:25;;;;;;;0.00;0.00;;;4.40;54.00;;;;;;4105558;28;20061;-72
2022/03/04 06:22:47;;;;;;;0.00;0.00;;;4.30;54.50;;;;;;4133261;28;20488;-73
2022/03/04 06:25:15;;;;;;;0.00;0.00;;;4.40;54.60;;;;;;4132988;28;20061;-72
2022/03/04 06:27:51;;;;;;;0.00;0.00;;;4.50;54.60;;;;;;4132825;28;20050;-75
2022/03/04 06:30:16;;;;;;;0.00;0.00;;;4.60;54.30;;;;;;4119222;28;20121;-70
2022/03/04 06:32:40;;;;;;;0.00;0.00;;;4.80;54.30;;;;;;4132768;28;20343;-70
2022/03/04 06:35:02;;;;;;;0.00;0.00;;;5.10;53.90;;;;;;4132347;28;20109;-72
2022/03/04 06:37:28;;;;;;;0.00;0.00;;;5.30;53.50;;;;;;4132814;28;20393;-69
2022/03/04 06:39:50;;;;;;;0.00;0.00;;;5.50;53.30;;;;;;4119251;28;20047;-72
2022/03/04 06:42:12;;;;;;;0.00;0.00;;;5.70;53.00;;;;;;4132425;28;20058;-72
2022/03/04 06:44:34;;;;;;;0.00;0.00;;;6.00;52.80;;;;;;4132999;28;20038;-72
2022/03/04 06:46:59;;;;;;;0.00;0.00;;;6.10;52.40;;;;;;4132199;28;20129;-71
2022/03/04 06:49:27;;;;;;;0.00;0.00;;;6.20;51.90;;;;;;4132435;28;20042;-71
2022/03/04 06:51:49;;;;;;;0.00;0.00;;;6.30;51.80;;;;;;4132348;28;20050;-73
2022/03/04 06:54:11;;;;;;;0.00;0.00;;;6.40;51.50;;;;;;4116131;28;20051;-71
2022/03/04 06:56:33;;;;;;;0.00;0.00;;;6.60;51.40;;;;;;4132486;28;20054;-72
2022/03/04 06:58:55;;;;;;;0.00;0.00;;;6.70;51.20;;;;;;4131313;28;20139;-68
2022/03/04 07:01:19;;;;;;;0.00;0.00;;;6.80;50.90;;;;;;4161199;28;20115;-71
2022/03/04 07:03:41;;;;;;;0.00;0.00;;;6.80;50.80;;;;;;4148575;28;20100;-72
2022/03/04 07:06:03;;;;;;;0.00;0.00;;;7.00;50.90;;;;;;4135075;28;20065;-71
2022/03/04 07:08:28;;;;;;;0.00;0.00;;;7.20;50.70;;;;;;4161754;28;20041;-71
2022/03/04 07:10:55;;;;;;;0.00;0.00;;;7.30;50.20;;;;;;4135279;28;20077;-69
2022/03/04 07:13:21;;;;;;;0.00;0.00;;;7.30;50.30;;;;;;4148615;28;20081;-72
2022/03/04 07:15:44;;;;;;;0.00;0.00;;;7.50;50.40;;;;;;4148485;28;20141;-72
2022/03/04 07:18:09;;;;;;;0.00;0.00;;;7.50;50.40;;;;;;4134493;28;20049;-71
2022/03/04 07:20:34;;;;;;;0.00;0.00;;;7.70;50.20;;;;;;4135013;28;20121;-71
2022/03/04 07:22:58;;;;;;;0.00;0.00;;;7.70;50.20;;;;;;4148579;28;20056;-70
2022/03/04 07:25:22;;;;;;;0.00;0.00;;;8.00;50.00;;;;;;4148274;28;20046;-71
2022/03/04 07:28:04;;;;;;;0.00;0.00;;;8.00;49.80;;;;;;4148235;28;20046;-79
2022/03/04 07:30:44;;;;;;;0.00;0.00;;;8.20;50.20;;;;;;4147896;28;20551;-69
2022/03/04 07:33:07;;;;;;;0.00;0.00;;;8.60;49.50;;;;;;4148189;28;20045;-73
2022/03/04 07:35:30;;;;;;;0.00;0.00;;;8.90;49.50;;;;;;4148137;28;20084;-71
2022/03/04 07:37:53;;;;;;;0.00;0.00;;;9.20;48.70;;;;;;4134584;28;20058;-76
2022/03/04 07:40:20;;;;;;;0.00;0.00;;;9.30;48.10;;;;;;4134148;28;20535;-71
2022/03/04 07:42:44;;;;;;;0.00;0.00;;;9.50;48.20;;;;;;4148435;28;20077;-72
2022/03/04 07:45:08;;;;;;;0.00;0.00;;;9.60;47.80;;;;;;4134802;28;20096;-72
2022/03/04 07:47:32;;;;;;;0.00;0.00;;;9.70;47.40;;;;;;4148274;28;20093;-72
2022/03/04 07:49:54;;;;;;;0.00;0.00;;;9.70;47.20;;;;;;4134617;28;20526;-71
2022/03/04 07:52:17;;;;;;;0.00;0.00;;;9.80;47.20;;;;;;4147821;28;20049;-70
2022/03/04 07:54:42;;;;;;;0.00;0.00;;;10.10;46.00;;;;;;4134477;28;20054;-74
2022/03/04 07:57:04;;;;;;;0.00;0.00;;;10.20;45.30;;;;;;4134460;28;20056;-70
2022/03/04 07:59:26;;;;;;;0.00;0.00;;;10.30;44.80;;;;;;4120832;28;20046;-75
2022/03/04 08:01:50;;;;;;;0.00;0.00;;;10.40;44.50;;;;;;4134579;28;20046;-71
2022/03/04 08:04:15;;;;;;;0.00;0.00;;;10.60;43.90;;;;;;4133926;28;20065;-71
2022/03/04 08:06:40;;;;;;;0.00;0.00;;;10.60;43.50;;;;;;4131155;28;20085;-69
2022/03/04 08:09:02;;;;;;;0.00;0.00;;;10.50;43.30;;;;;;4139813;28;20065;-71
2022/03/04 08:11:24;;;;;;;0.00;0.00;;;9.80;44.60;;;;;;4104862;28;20043;-70
2022/03/04 08:13:46;;;;;;;0.00;0.00;;;10.20;44.40;;;;;;4131709;28;20057;-71
2022/03/04 08:16:11;;;;;;;0.00;0.00;;;10.40;44.20;;;;;;4142037;28;20065;-72
2022/03/04 08:18:37;;;;;;;0.00;0.00;;;10.70;43.90;;;;;;4117808;28;20056;-70
2022/03/04 08:21:00;;;;;;;0.00;0.00;;;10.80;43.40;;;;;;4118155;28;20580;-70
2022/03/04 08:23:25;;;;;;;0.00;0.00;;;10.80;42.70;;;;;;4117919;28;20099;-72
2022/03/04 08:25:49;;;;;;;0.00;0.00;;;10.70;43.50;;;;;;4131402;28;20068;-68
2022/03/04 08:28:12;;;;;;;0.00;0.00;;;10.50;44.10;;;;;;4117537;28;20063;-69
2022/03/04 08:30:40;;;;;;;0.00;0.00;;;10.20;44.70;;;;;;4117957;28;20078;-73
2022/03/04 08:33:09;;;;;;;0.00;0.00;;;11.10;44.50;;;;;;4118048;28;20046;-70
2022/03/04 08:35:33;;;;;;;0.00;0.00;;;10.70;44.10;;;;;;4131599;28;20038;-71
2022/03/04 08:38:14;;;;;;;0.00;0.00;;;10.90;43.90;;;;;;4118380;28;20047;-71
2022/03/04 08:40:39;;;;;;;0.00;0.00;;;11.00;43.10;;;;;;4144611;28;20069;-71
2022/03/04 08:43:01;;;;;;;0.00;0.00;;;11.00;43.80;;;;;;4139140;28;20511;-71
2022/03/04 08:45:23;;;;;;;0.00;0.00;;;11.10;43.90;;;;;;4128544;28;20046;-72
2022/03/04 08:47:47;;;;;;;0.00;0.00;;;11.10;43.20;;;;;;4134423;28;20042;-72
2022/03/04 08:50:11;;;;;;;0.00;0.00;;;10.90;43.70;;;;;;4105078;28;20126;-71
2022/03/04 08:52:35;;;;;;;0.00;0.00;;;10.70;44.10;;;;;;4147753;28;20117;-73
2022/03/04 08:54:58;;;;;;;0.00;0.00;;;11.00;43.40;;;;;;4122271;28;20544;-73
2022/03/04 08:57:20;;;;;;;0.00;0.00;;;11.20;43.10;;;;;;4142991;28;20093;-70
2022/03/04 08:59:42;;;;;;;0.00;0.00;;;11.00;43.90;;;;;;4150489;28;20046;-72
2022/03/04 09:02:07;;;;;;;0.00;0.00;;;11.40;44.40;;;;;;4133831;28;20064;-71
2022/03/04 09:04:36;;;;;;;0.00;0.00;;;11.80;44.30;;;;;;4150592;28;20497;-71
2022/03/04 09:07:03;;;;;;;0.00;0.00;;;12.00;44.40;;;;;;4137694;28;20056;-73
2022/03/04 09:09:28;;;;;;;0.00;0.00;;;12.50;43.20;;;;;;4136550;28;20148;-73
2022/03/04 09:11:50;;;;;;;0.00;0.00;;;12.60;42.00;;;;;;4150236;28;20479;-72
2022/03/04 09:14:23;;;;;;;0.00;0.00;;;12.00;42.00;;;;;;4136231;28;20535;-73
2022/03/04 09:16:45;;;;;;;0.00;0.00;;;12.60;42.40;;;;;;4134207;28;20456;-73
2022/03/04 09:19:12;;;;;;;0.00;0.00;;;13.50;41.30;;;;;;4121031;28;20058;-69
2022/03/04 09:21:43;;;;;;;0.00;0.00;;;13.90;40.30;;;;;;4121695;28;20137;-73
2022/03/04 09:24:08;;;;;;;0.00;0.00;;;13.90;39.40;;;;;;4104138;28;20070;-71
2022/03/04 09:26:35;;;;;;;0.00;0.00;;;13.90;39.70;;;;;;4108152;28;20050;-71
2022/03/04 09:28:59;;;;;;;0.00;0.00;;;14.10;38.70;;;;;;4133743;28;20062;-71
2022/03/04 09:31:21;;;;;;;0.00;0.00;;;14.20;39.00;;;;;;4133787;28;20058;-71
2022/03/04 09:33:45;;;;;;;0.00;0.00;;;13.90;39.60;;;;;;4133681;28;20054;-71
2022/03/04 09:36:11;;;;;;;0.00;0.00;;;14.40;39.50;;;;;;4104479;28;20126;-76
2022/03/04 09:38:34;;;;;;;0.00;0.00;;;15.00;39.10;;;;;;4133684;28;20046;-72
2022/03/04 09:40:58;;;;;;;0.00;0.00;;;15.20;38.40;;;;;;4120315;28;20054;-71
2022/03/04 09:43:24;;;;;;;0.00;0.00;;;15.40;38.10;;;;;;4149303;28;20049;-70
2022/03/04 09:45:48;;;;;;;0.00;0.00;;;15.10;38.30;;;;;;4149661;28;20464;-71
2022/03/04 09:48:11;;;;;;;0.00;0.00;;;14.70;38.40;;;;;;4120394;28;20051;-73
2022/03/04 09:50:42;;;;;;;0.00;0.00;;;14.50;38.30;;;;;;4149581;28;20073;-74
2022/03/04 09:53:09;;;;;;;0.00;0.00;;;13.90;39.20;;;;;;4137047;28;20149;-70
2022/03/04 09:55:34;;;;;;;0.00;0.00;;;14.40;39.20;;;;;;4135747;28;20115;-69
2022/03/04 09:57:58;;;;;;;0.00;0.00;;;14.60;38.40;;;;;;4136020;28;20060;-71
2022/03/04 10:00:30;;;;;;;0.00;0.00;;;14.90;38.70;;;;;;4149134;28;20107;-71
2022/03/04 10:02:53;;;;;;;0.00;0.00;;;15.30;38.40;;;;;;4149590;28;20642;-71
2022/03/04 10:05:20;;;;;;;0.00;0.00;;;15.60;38.40;;;;;;4149314;28;20050;-72
2022/03/04 10:07:48;;;;;;;0.00;0.00;;;15.70;37.30;;;;;;4135634;28;20050;-71
2022/03/04 10:10:17;;;;;;;0.00;0.00;;;15.50;37.60;;;;;;4121853;28;20370;-76
2022/03/04 10:12:56;;;;;;;0.00;0.00;;;15.70;37.60;;;;;;4149331;28;20052;-71
2022/03/04 10:15:24;;;;;;;0.00;0.00;;;16.20;36.70;;;;;;4146604;28;20046;-73
2022/03/04 10:18:07;;;;;;;0.00;0.00;;;16.50;36.90;;;;;;4119680;28;20051;-72
2022/03/04 10:20:37;;;;;;;0.00;0.00;;;16.60;36.80;;;;;;4132462;28;20034;-73
2022/03/04 10:23:32;;;;;;;0.00;0.00;;;15.80;36.90;;;;;;4119686;28;20409;-72
2022/03/04 10:25:59;;;;;;;0.00;0.00;;;16.20;36.70;;;;;;4097005;28;20105;-74
2022/03/04 10:28:29;;;;;;;0.00;0.00;;;16.80;36.40;;;;;;4105680;28;20051;-74
2022/03/04 10:30:54;;;;;;;0.00;0.00;;;17.50;35.60;;;;;;4119936;28;20370;-70
2022/03/04 10:33:22;;;;;;;0.00;0.00;;;17.70;35.30;;;;;;4119545;28;20058;-71
2022/03/04 10:35:45;;;;;;;0.00;0.00;;;18.00;34.90;;;;;;4132734;28;20516;-69
2022/03/04 10:38:28;;;;;;;0.00;0.00;;;18.10;34.90;;;;;;4104449;28;20062;-74
2022/03/04 10:40:51;;;;;;;0.00;0.00;;;18.10;34.70;;;;;;4132808;28;20449;-71
2022/03/04 10:43:23;;;;;;;0.00;0.00;;;17.70;34.30;;;;;;4119077;28;20113;-71
2022/03/04 10:45:47;;;;;;;0.00;0.00;;;17.80;34.70;;;;;;4132452;28;20117;-74
2022/03/04 10:48:13;;;;;;;0.00;0.00;;;18.10;33.50;;;;;;4103584;28;20051;-72
2022/03/04 10:50:41;;;;;;;0.00;0.00;;;16.80;34.30;;;;;;4132412;28;20129;-70
2022/03/04 10:53:12;;;;;;;0.00;0.00;;;17.00;35.20;;;;;;4119621;28;20066;-70
2022/03/04 10:55:42;;;;;;;0.00;0.00;;;17.90;34.50;;;;;;4132377;28;20069;-71
2022/03/04 10:58:14;;;;;;;0.00;0.00;;;18.20;33.30;;;;;;4116155;28;20072;-70
2022/03/04 11:00:37;;;;;;;0.00;0.00;;;17.30;33.60;;;;;;4118824;28;20046;-72
2022/03/04 11:03:19;;;;;;;0.00;0.00;;;18.20;33.20;;;;;;4118875;28;20117;-69
2022/03/04 11:05:42;;;;;;;0.00;0.00;;;18.40;32.20;;;;;;4132307;28;20050;-70
2022/03/04 11:08:17;;;;;;;0.00;0.00;;;18.60;32.70;;;;;;4119017;28;20405;-71
2022/03/04 11:10:39;;;;;;;0.00;0.00;;;19.60;31.50;;;;;;4107017;28;20054;-75
2022/03/04 11:13:13;;;;;;;0.00;0.00;;;20.30;30.60;;;;;;4105941;28;20107;-72
2022/03/04 11:15:40;;;;;;;0.00;0.00;;;19.50;30.30;;;;;;4118630;28;20096;-72
2022/03/04 11:18:08;;;;;;;0.00;0.00;;;17.70;30.90;;;;;;4118591;28;20043;-71
2022/03/04 11:20:33;;;;;;;0.00;0.00;;;16.20;32.60;;;;;;4131036;28;20416;-70
2022/03/04 11:23:23;;;;;;;0.00;0.00;;;16.00;33.50;;;;;;4132040;28;20111;-73
2022/03/04 11:26:01;;;;;;;0.00;0.00;;;15.70;34.40;;;;;;4119052;28;20149;-71
2022/03/04 11:28:49;;;;;;;0.00;0.00;;;15.50;34.90;;;;;;4119459;28;20096;-70
2022/03/04 11:31:15;;;;;;;0.00;0.00;;;15.40;35.20;;;;;;4132360;28;20477;-74
2022/03/04 11:36:36;;;;;;;0.00;0.00;;;16.00;33.30;;;;;;4107788;28;20098;-72
2022/03/04 11:39:12;;;;;;;0.00;0.00;;;16.40;34.20;;;;;;4118884;28;20049;-72
2022/03/04 11:41:38;;;;;;;0.00;0.00;;;17.00;33.40;;;;;;4132039;28;20046;-74
2022/03/04 11:44:10;;;;;;;0.00;0.00;;;17.80;32.60;;;;;;4132002;28;20094;-69
2022/03/04 11:47:05;;;;;;;0.00;0.00;;;18.10;32.10;;;;;;4131645;28;20057;-73
2022/03/04 11:49:46;;;;;;;0.00;0.00;;;18.30;32.20;;;;;;4118875;28;20056;-71
2022/03/04 11:52:21;;;;;;;0.00;0.00;;;19.40;31.40;;;;;;4117894;28;20054;-70
2022/03/04 11:54:45;;;;;;;0.00;0.00;;;19.10;31.10;;;;;;4118143;28;20047;-70
2022/03/04 11:57:26;;;;;;;0.00;0.00;;;18.00;32.10;;;;;;4118266;28;20140;-69
2022/03/04 11:59:56;;;;;;;0.00;0.00;;;17.40;33.10;;;;;;4118342;28;20470;-72
2022/03/04 12:02:27;;;;;;;0.00;0.00;;;17.10;33.40;;;;;;4103363;28;20109;-71
2022/03/04 12:05:12;;;;;;;0.00;0.00;;;18.20;33.00;;;;;;4131675;28;20112;-72
2022/03/04 12:07:39;;;;;;;0.00;0.00;;;19.50;31.50;;;;;;4131698;28;20100;-71
2022/03/04 12:10:07;;;;;;;0.00;0.00;;;19.20;31.30;;;;;;4131709;28;20085;-73
2022/03/04 12:12:32;;;;;;;0.00;0.00;;;19.50;30.60;;;;;;4130970;28;20038;-69
2022/03/04 12:14:57;;;;;;;0.00;0.00;;;19.00;30.90;;;;;;4118140;28;20055;-69
2022/03/04 12:17:22;;;;;;;0.00;0.00;;;19.50;30.30;;;;;;4131666;28;20054;-71
2022/03/04 12:19:44;;;;;;;0.00;0.00;;;20.40;29.80;;;;;;4118167;28;20494;-71
2022/03/04 12:22:07;;;;;;;0.00;0.00;;;20.00;29.50;;;;;;4131457;28;20116;-69
2022/03/04 12:24:36;;;;;;;0.00;0.00;;;20.60;30.00;;;;;;4117963;28;20105;-72
2022/03/04 12:27:03;;;;;;;0.00;0.00;;;20.30;29.70;;;;;;4118346;28;20062;-70
2022/03/04 12:29:42;;;;;;;0.00;0.00;;;20.90;30.00;;;;;;4131624;28;20050;-71
2022/03/04 12:32:07;;;;;;;0.00;0.00;;;21.60;29.00;;;;;;4119420;28;20145;-74
2022/03/04 12:34:32;;;;;;;0.00;0.00;;;22.00;28.60;;;;;;4107250;28;20386;-72
2022/03/04 12:37:00;;;;;;;0.00;0.00;;;22.30;28.90;;;;;;4120894;28;20047;-71
2022/03/04 12:39:22;;;;;;;0.00;0.00;;;22.70;28.50;;;;;;4121139;28;20047;-72
2022/03/04 12:41:51;;;;;;;0.00;0.00;;;22.20;25.90;;;;;;4134521;28;20047;-69
2022/03/04 12:44:15;;;;;;;0.00;0.00;;;20.80;27.00;;;;;;4106010;28;20098;-70
2022/03/04 12:46:42;;;;;;;0.00;0.00;;;20.70;27.00;;;;;;4134711;28;20066;-69
2022/03/04 12:49:07;;;;;;;0.00;0.00;;;21.00;26.70;;;;;;4134539;28;20061;-70